X  Schließen METAR Luftfahrt Wetterdaten     EDDH Hamburg Helmut Schmidt Airport
Temperatur
13°C Temperatur
8°C Taupunkt
72% Feuchtigkeit



Wind
10 KM/S
6 MPS
3 M/S
5 KTS



40°
NO
Aktuelle Wetterlage

Teilweise bewölkt Teilweise bewölkt
Luftdruck 1022.92 (hPa) - 30.21 (inHg)
Sichtweite 6.2 (Meile) - 10 (Km)
Flughafen
Flughafen Code EDDH

Position : Hamburg Helmut Schmidt Airport
Entfernung: 11 (Km)

Metar:
EDDH 200950Z 04005KT 360V070 9999 FEW025 13/08 Q1023 NOSIG

Zeit: 20-09-2021 11:50 CEST